sensor_id;sensor_type;location;lat;lon;timestamp;temperature;humidity
32811;DHT22;65470;47.324;8.548;2023-04-24T00:02:11;13.40;99.90
32811;DHT22;65470;47.324;8.548;2023-04-24T00:04:38;13.40;99.90
32811;DHT22;65470;47.324;8.548;2023-04-24T00:07:07;13.40;99.90
32811;DHT22;65470;47.324;8.548;2023-04-24T00:09:33;13.40;99.90
32811;DHT22;65470;47.324;8.548;2023-04-24T00:11:59;13.40;99.90
32811;DHT22;65470;47.324;8.548;2023-04-24T00:14:25;13.30;99.90
32811;DHT22;65470;47.324;8.548;2023-04-24T00:16:50;13.40;99.90
32811;DHT22;65470;47.324;8.548;2023-04-24T00:19:17;13.30;99.90
32811;DHT22;65470;47.324;8.548;2023-04-24T00:21:42;13.20;99.90
32811;DHT22;65470;47.324;8.548;2023-04-24T00:24:08;13.20;99.90
32811;DHT22;65470;47.324;8.548;2023-04-24T00:26:36;13.20;99.90
32811;DHT22;65470;47.324;8.548;2023-04-24T00:29:02;13.10;99.90
32811;DHT22;65470;47.324;8.548;2023-04-24T00:31:27;13.10;99.90
32811;DHT22;65470;47.324;8.548;2023-04-24T00:33:53;13.00;99.90
32811;DHT22;65470;47.324;8.548;2023-04-24T00:36:19;12.90;99.90
32811;DHT22;65470;47.324;8.548;2023-04-24T00:38:46;12.90;99.90
32811;DHT22;65470;47.324;8.548;2023-04-24T00:41:11;12.90;99.90
32811;DHT22;65470;47.324;8.548;2023-04-24T00:43:37;12.90;99.90
32811;DHT22;65470;47.324;8.548;2023-04-24T00:46:03;12.90;99.90
32811;DHT22;65470;47.324;8.548;2023-04-24T00:48:29;12.80;99.90
32811;DHT22;65470;47.324;8.548;2023-04-24T00:50:56;12.70;99.90
32811;DHT22;65470;47.324;8.548;2023-04-24T00:53:22;12.70;99.90
32811;DHT22;65470;47.324;8.548;2023-04-24T00:55:48;12.70;99.90
32811;DHT22;65470;47.324;8.548;2023-04-24T00:58:14;12.80;99.90
32811;DHT22;65470;47.324;8.548;2023-04-24T01:00:40;12.70;99.90
32811;DHT22;65470;47.324;8.548;2023-04-24T01:03:06;12.60;99.90
32811;DHT22;65470;47.324;8.548;2023-04-24T01:05:32;12.60;99.90
32811;DHT22;65470;47.324;8.548;2023-04-24T01:07:59;12.40;99.90
32811;DHT22;65470;47.324;8.548;2023-04-24T01:10:27;12.40;99.90
32811;DHT22;65470;47.324;8.548;2023-04-24T01:12:55;12.30;99.90
32811;DHT22;65470;47.324;8.548;2023-04-24T01:15:21;12.40;99.90
32811;DHT22;65470;47.324;8.548;2023-04-24T01:17:46;12.40;99.90
32811;DHT22;65470;47.324;8.548;2023-04-24T01:20:12;12.30;99.90
32811;DHT22;65470;47.324;8.548;2023-04-24T01:22:38;12.30;99.90
32811;DHT22;65470;47.324;8.548;2023-04-24T01:25:04;12.20;99.90
32811;DHT22;65470;47.324;8.548;2023-04-24T01:27:31;12.10;99.90
32811;DHT22;65470;47.324;8.548;2023-04-24T01:29:56;12.10;99.90
32811;DHT22;65470;47.324;8.548;2023-04-24T01:32:23;12.10;99.90
32811;DHT22;65470;47.324;8.548;2023-04-24T01:34:49;12.10;99.90
32811;DHT22;65470;47.324;8.548;2023-04-24T01:37:15;12.20;99.90
32811;DHT22;65470;47.324;8.548;2023-04-24T01:39:42;12.10;99.90
32811;DHT22;65470;47.324;8.548;2023-04-24T01:42:08;12.10;99.90
32811;DHT22;65470;47.324;8.548;2023-04-24T01:44:34;12.10;99.90
32811;DHT22;65470;47.324;8.548;2023-04-24T01:47:01;12.20;99.90
32811;DHT22;65470;47.324;8.548;2023-04-24T01:49:27;12.10;99.90
32811;DHT22;65470;47.324;8.548;2023-04-24T01:51:52;12.10;99.90
32811;DHT22;65470;47.324;8.548;2023-04-24T01:54:18;12.10;99.90
32811;DHT22;65470;47.324;8.548;2023-04-24T01:56:44;12.10;99.90
32811;DHT22;65470;47.324;8.548;2023-04-24T01:59:11;12.10;99.90
32811;DHT22;65470;47.324;8.548;2023-04-24T02:04:59;12.10;99.90
32811;DHT22;65470;47.324;8.548;2023-04-24T02:07:24;12.10;99.90
32811;DHT22;65470;47.324;8.548;2023-04-24T02:09:50;12.20;99.90
32811;DHT22;65470;47.324;8.548;2023-04-24T02:12:16;12.20;99.90
32811;DHT22;65470;47.324;8.548;2023-04-24T02:14:43;12.20;99.90
32811;DHT22;65470;47.324;8.548;2023-04-24T02:17:09;12.20;99.90
32811;DHT22;65470;47.324;8.548;2023-04-24T02:19:34;12.10;99.90
32811;DHT22;65470;47.324;8.548;2023-04-24T02:22:00;12.10;99.90
32811;DHT22;65470;47.324;8.548;2023-04-24T02:24:25;12.20;99.90
32811;DHT22;65470;47.324;8.548;2023-04-24T02:26:51;12.10;99.90
32811;DHT22;65470;47.324;8.548;2023-04-24T02:29:17;12.10;99.90
32811;DHT22;65470;47.324;8.548;2023-04-24T02:31:43;12.10;99.90
32811;DHT22;65470;47.324;8.548;2023-04-24T02:34:09;12.20;99.90
32811;DHT22;65470;47.324;8.548;2023-04-24T02:36:34;12.20;99.90
32811;DHT22;65470;47.324;8.548;2023-04-24T02:39:00;12.10;99.90
32811;DHT22;65470;47.324;8.548;2023-04-24T02:41:26;12.00;99.90
32811;DHT22;65470;47.324;8.548;2023-04-24T02:43:59;12.10;99.90
32811;DHT22;65470;47.324;8.548;2023-04-24T02:46:25;12.10;99.90
32811;DHT22;65470;47.324;8.548;2023-04-24T02:48:51;12.20;99.90
32811;DHT22;65470;47.324;8.548;2023-04-24T02:51:17;12.20;99.90
32811;DHT22;65470;47.324;8.548;2023-04-24T02:53:42;12.20;99.90
32811;DHT22;65470;47.324;8.548;2023-04-24T02:56:08;12.20;99.90
32811;DHT22;65470;47.324;8.548;2023-04-24T02:58:34;12.20;99.90
32811;DHT22;65470;47.324;8.548;2023-04-24T03:00:59;12.20;99.90
32811;DHT22;65470;47.324;8.548;2023-04-24T03:03:25;12.30;99.90
32811;DHT22;65470;47.324;8.548;2023-04-24T03:05:51;12.30;99.90
32811;DHT22;65470;47.324;8.548;2023-04-24T03:08:17;12.30;99.90
32811;DHT22;65470;47.324;8.548;2023-04-24T03:10:43;12.30;99.90
32811;DHT22;65470;47.324;8.548;2023-04-24T03:13:09;12.20;99.90
32811;DHT22;65470;47.324;8.548;2023-04-24T03:15:34;12.20;99.90
32811;DHT22;65470;47.324;8.548;2023-04-24T03:18:00;12.20;99.90
32811;DHT22;65470;47.324;8.548;2023-04-24T03:20:26;12.20;99.90
32811;DHT22;65470;47.324;8.548;2023-04-24T03:22:51;12.20;99.90
32811;DHT22;65470;47.324;8.548;2023-04-24T03:25:17;12.10;99.90
32811;DHT22;65470;47.324;8.548;2023-04-24T03:27:43;12.10;99.90
32811;DHT22;65470;47.324;8.548;2023-04-24T03:30:09;12.20;99.90
32811;DHT22;65470;47.324;8.548;2023-04-24T03:32:35;12.20;99.90
32811;DHT22;65470;47.324;8.548;2023-04-24T03:35:01;12.20;99.90
32811;DHT22;65470;47.324;8.548;2023-04-24T03:37:26;12.20;99.90
32811;DHT22;65470;47.324;8.548;2023-04-24T03:39:52;12.20;99.90
32811;DHT22;65470;47.324;8.548;2023-04-24T03:42:18;12.10;99.90
32811;DHT22;65470;47.324;8.548;2023-04-24T03:44:43;12.10;99.90
32811;DHT22;65470;47.324;8.548;2023-04-24T03:47:09;12.10;99.90
32811;DHT22;65470;47.324;8.548;2023-04-24T03:49:35;12.00;99.90
32811;DHT22;65470;47.324;8.548;2023-04-24T03:52:00;12.00;99.90
32811;DHT22;65470;47.324;8.548;2023-04-24T03:54:26;12.00;99.90
32811;DHT22;65470;47.324;8.548;2023-04-24T03:56:52;12.00;99.90
32811;DHT22;65470;47.324;8.548;2023-04-24T03:59:17;12.00;99.90
32811;DHT22;65470;47.324;8.548;2023-04-24T04:01:43;11.90;99.90
32811;DHT22;65470;47.324;8.548;2023-04-24T04:04:09;12.00;99.90
32811;DHT22;65470;47.324;8.548;2023-04-24T04:06:35;12.00;99.90
32811;DHT22;65470;47.324;8.548;2023-04-24T04:09:01;11.90;99.90
32811;DHT22;65470;47.324;8.548;2023-04-24T04:11:28;12.00;99.90
32811;DHT22;65470;47.324;8.548;2023-04-24T04:13:54;12.00;99.90
32811;DHT22;65470;47.324;8.548;2023-04-24T04:16:20;11.90;99.90
32811;DHT22;65470;47.324;8.548;2023-04-24T04:18:45;11.90;99.90
32811;DHT22;65470;47.324;8.548;2023-04-24T04:21:11;11.90;99.90
32811;DHT22;65470;47.324;8.548;2023-04-24T04:23:37;11.90;99.90
32811;DHT22;65470;47.324;8.548;2023-04-24T04:26:03;11.90;99.90
32811;DHT22;65470;47.324;8.548;2023-04-24T04:28:29;11.90;99.90
32811;DHT22;65470;47.324;8.548;2023-04-24T04:30:57;12.00;99.90
32811;DHT22;65470;47.324;8.548;2023-04-24T04:33:26;11.90;99.90
32811;DHT22;65470;47.324;8.548;2023-04-24T04:35:52;11.90;99.90
32811;DHT22;65470;47.324;8.548;2023-04-24T04:38:20;12.00;99.90
32811;DHT22;65470;47.324;8.548;2023-04-24T04:40:46;12.00;99.90
32811;DHT22;65470;47.324;8.548;2023-04-24T04:43:12;12.00;99.90
32811;DHT22;65470;47.324;8.548;2023-04-24T04:45:41;12.00;99.90
32811;DHT22;65470;47.324;8.548;2023-04-24T04:48:09;11.90;99.90
32811;DHT22;65470;47.324;8.548;2023-04-24T04:50:37;11.70;99.90
32811;DHT22;65470;47.324;8.548;2023-04-24T04:53:03;11.70;99.90
32811;DHT22;65470;47.324;8.548;2023-04-24T04:55:29;11.80;99.90
32811;DHT22;65470;47.324;8.548;2023-04-24T04:57:54;11.70;99.90
32811;DHT22;65470;47.324;8.548;2023-04-24T05:00:21;11.80;99.90
32811;DHT22;65470;47.324;8.548;2023-04-24T05:02:47;11.70;99.90
32811;DHT22;65470;47.324;8.548;2023-04-24T05:05:12;11.70;99.90
32811;DHT22;65470;47.324;8.548;2023-04-24T05:07:38;11.70;99.90
32811;DHT22;65470;47.324;8.548;2023-04-24T05:10:04;11.80;99.90
32811;DHT22;65470;47.324;8.548;2023-04-24T05:12:30;11.70;99.90
32811;DHT22;65470;47.324;8.548;2023-04-24T05:14:55;11.70;99.90
32811;DHT22;65470;47.324;8.548;2023-04-24T05:17:21;11.70;99.90
32811;DHT22;65470;47.324;8.548;2023-04-24T05:19:46;11.80;99.90
32811;DHT22;65470;47.324;8.548;2023-04-24T05:22:13;11.70;99.90
32811;DHT22;65470;47.324;8.548;2023-04-24T05:24:39;11.60;99.90
32811;DHT22;65470;47.324;8.548;2023-04-24T05:27:05;11.50;99.90
32811;DHT22;65470;47.324;8.548;2023-04-24T05:29:31;11.40;99.90
32811;DHT22;65470;47.324;8.548;2023-04-24T05:31:58;11.20;99.90
32811;DHT22;65470;47.324;8.548;2023-04-24T05:34:24;11.20;99.90
32811;DHT22;65470;47.324;8.548;2023-04-24T05:36:50;11.20;99.90
32811;DHT22;65470;47.324;8.548;2023-04-24T05:39:16;11.30;99.90
32811;DHT22;65470;47.324;8.548;2023-04-24T05:41:42;11.30;99.90
32811;DHT22;65470;47.324;8.548;2023-04-24T05:44:08;11.40;99.90
32811;DHT22;65470;47.324;8.548;2023-04-24T05:46:33;11.40;99.90
32811;DHT22;65470;47.324;8.548;2023-04-24T05:48:59;11.40;99.90
32811;DHT22;65470;47.324;8.548;2023-04-24T05:51:25;11.50;99.90
32811;DHT22;65470;47.324;8.548;2023-04-24T05:53:51;11.60;99.90
32811;DHT22;65470;47.324;8.548;2023-04-24T05:56:17;11.70;99.90
32811;DHT22;65470;47.324;8.548;2023-04-24T05:58:43;11.70;99.90
32811;DHT22;65470;47.324;8.548;2023-04-24T06:01:09;11.60;99.90
32811;DHT22;65470;47.324;8.548;2023-04-24T06:03:35;11.70;99.90
32811;DHT22;65470;47.324;8.548;2023-04-24T06:06:00;11.80;99.90
32811;DHT22;65470;47.324;8.548;2023-04-24T06:08:26;11.80;99.90
32811;DHT22;65470;47.324;8.548;2023-04-24T06:10:51;11.80;99.90
32811;DHT22;65470;47.324;8.548;2023-04-24T06:13:17;11.80;99.90
32811;DHT22;65470;47.324;8.548;2023-04-24T06:15:43;11.80;99.90
32811;DHT22;65470;47.324;8.548;2023-04-24T06:18:09;11.80;99.90
32811;DHT22;65470;47.324;8.548;2023-04-24T06:20:38;11.90;99.90
32811;DHT22;65470;47.324;8.548;2023-04-24T06:23:04;12.00;99.90
32811;DHT22;65470;47.324;8.548;2023-04-24T06:25:30;12.10;99.90
32811;DHT22;65470;47.324;8.548;2023-04-24T06:27:56;12.30;99.90
32811;DHT22;65470;47.324;8.548;2023-04-24T06:30:22;12.20;99.90
32811;DHT22;65470;47.324;8.548;2023-04-24T06:32:48;12.20;99.90
32811;DHT22;65470;47.324;8.548;2023-04-24T06:35:13;12.30;99.90
32811;DHT22;65470;47.324;8.548;2023-04-24T06:37:41;12.50;99.90
32811;DHT22;65470;47.324;8.548;2023-04-24T06:40:07;12.60;99.90
32811;DHT22;65470;47.324;8.548;2023-04-24T06:42:32;12.80;99.90
32811;DHT22;65470;47.324;8.548;2023-04-24T06:44:59;13.00;99.90
32811;DHT22;65470;47.324;8.548;2023-04-24T06:47:24;13.20;99.90
32811;DHT22;65470;47.324;8.548;2023-04-24T06:49:50;13.40;99.90
32811;DHT22;65470;47.324;8.548;2023-04-24T06:52:18;13.60;99.90
32811;DHT22;65470;47.324;8.548;2023-04-24T06:54:43;14.20;99.90
32811;DHT22;65470;47.324;8.548;2023-04-24T06:57:09;14.30;99.90
32811;DHT22;65470;47.324;8.548;2023-04-24T06:59:35;14.10;99.90
32811;DHT22;65470;47.324;8.548;2023-04-24T07:02:01;13.90;99.90
32811;DHT22;65470;47.324;8.548;2023-04-24T07:04:27;14.00;99.90
32811;DHT22;65470;47.324;8.548;2023-04-24T07:06:53;14.10;99.90
32811;DHT22;65470;47.324;8.548;2023-04-24T07:09:23;14.00;99.90
32811;DHT22;65470;47.324;8.548;2023-04-24T07:11:50;14.00;99.90
32811;DHT22;65470;47.324;8.548;2023-04-24T07:14:17;14.00;99.90
32811;DHT22;65470;47.324;8.548;2023-04-24T07:16:43;13.80;99.90
32811;DHT22;65470;47.324;8.548;2023-04-24T07:19:09;13.40;99.90
32811;DHT22;65470;47.324;8.548;2023-04-24T07:21:35;13.20;99.90
32811;DHT22;65470;47.324;8.548;2023-04-24T07:24:01;13.40;99.90
32811;DHT22;65470;47.324;8.548;2023-04-24T07:26:29;13.50;99.90
32811;DHT22;65470;47.324;8.548;2023-04-24T07:28:55;13.40;99.90
32811;DHT22;65470;47.324;8.548;2023-04-24T07:31:21;13.50;99.90
32811;DHT22;65470;47.324;8.548;2023-04-24T07:33:47;13.80;99.90
32811;DHT22;65470;47.324;8.548;2023-04-24T07:36:13;14.00;99.90
32811;DHT22;65470;47.324;8.548;2023-04-24T07:38:42;13.90;99.90
32811;DHT22;65470;47.324;8.548;2023-04-24T07:41:08;13.90;99.90
32811;DHT22;65470;47.324;8.548;2023-04-24T07:43:35;13.70;99.90
32811;DHT22;65470;47.324;8.548;2023-04-24T07:46:00;13.50;99.90
32811;DHT22;65470;47.324;8.548;2023-04-24T07:48:26;13.60;99.90
32811;DHT22;65470;47.324;8.548;2023-04-24T07:50:53;13.60;99.90
32811;DHT22;65470;47.324;8.548;2023-04-24T07:53:18;14.20;99.90
32811;DHT22;65470;47.324;8.548;2023-04-24T07:55:44;15.50;99.90
32811;DHT22;65470;47.324;8.548;2023-04-24T07:58:10;16.80;99.90
32811;DHT22;65470;47.324;8.548;2023-04-24T08:00:35;18.20;99.90
32811;DHT22;65470;47.324;8.548;2023-04-24T08:03:01;19.20;97.90
32811;DHT22;65470;47.324;8.548;2023-04-24T08:05:27;19.90;96.40
32811;DHT22;65470;47.324;8.548;2023-04-24T08:07:54;20.20;93.90
32811;DHT22;65470;47.324;8.548;2023-04-24T08:10:24;20.20;86.90
32811;DHT22;65470;47.324;8.548;2023-04-24T08:12:50;20.40;91.80
32811;DHT22;65470;47.324;8.548;2023-04-24T08:15:16;21.90;87.90
32811;DHT22;65470;47.324;8.548;2023-04-24T08:17:42;22.40;83.10
32811;DHT22;65470;47.324;8.548;2023-04-24T08:20:09;22.40;79.50
32811;DHT22;65470;47.324;8.548;2023-04-24T08:22:39;21.00;82.10
32811;DHT22;65470;47.324;8.548;2023-04-24T08:25:06;20.00;85.30
32811;DHT22;65470;47.324;8.548;2023-04-24T08:27:32;18.80;89.90
32811;DHT22;65470;47.324;8.548;2023-04-24T08:29:58;17.80;90.50
32811;DHT22;65470;47.324;8.548;2023-04-24T08:32:25;16.80;90.70
32811;DHT22;65470;47.324;8.548;2023-04-24T08:34:54;16.00;92.60
32811;DHT22;65470;47.324;8.548;2023-04-24T08:37:22;15.60;94.70
32811;DHT22;65470;47.324;8.548;2023-04-24T08:39:47;15.50;95.00
32811;DHT22;65470;47.324;8.548;2023-04-24T08:42:14;15.70;97.00
32811;DHT22;65470;47.324;8.548;2023-04-24T08:44:41;15.80;96.20
32811;DHT22;65470;47.324;8.548;2023-04-24T08:47:07;15.80;96.70
32811;DHT22;65470;47.324;8.548;2023-04-24T08:49:33;15.90;96.10
32811;DHT22;65470;47.324;8.548;2023-04-24T08:52:02;16.00;95.80
32811;DHT22;65470;47.324;8.548;2023-04-24T08:54:28;16.20;95.40
32811;DHT22;65470;47.324;8.548;2023-04-24T08:56:56;16.50;97.90
32811;DHT22;65470;47.324;8.548;2023-04-24T08:59:23;16.60;94.80
32811;DHT22;65470;47.324;8.548;2023-04-24T09:01:51;16.40;94.70
32811;DHT22;65470;47.324;8.548;2023-04-24T09:04:18;16.40;94.30
32811;DHT22;65470;47.324;8.548;2023-04-24T09:06:45;16.10;94.80
32811;DHT22;65470;47.324;8.548;2023-04-24T09:09:11;16.60;94.30
32811;DHT22;65470;47.324;8.548;2023-04-24T09:11:37;18.00;92.30
32811;DHT22;65470;47.324;8.548;2023-04-24T09:14:03;20.00;93.60
32811;DHT22;65470;47.324;8.548;2023-04-24T09:16:29;21.90;83.40
32811;DHT22;65470;47.324;8.548;2023-04-24T09:18:55;21.70;75.70
32811;DHT22;65470;47.324;8.548;2023-04-24T09:21:22;20.80;76.40
32811;DHT22;65470;47.324;8.548;2023-04-24T09:23:58;19.90;78.40
32811;DHT22;65470;47.324;8.548;2023-04-24T09:26:25;19.50;79.60
32811;DHT22;65470;47.324;8.548;2023-04-24T09:28:50;18.60;79.80
32811;DHT22;65470;47.324;8.548;2023-04-24T09:31:18;17.90;82.90
32811;DHT22;65470;47.324;8.548;2023-04-24T09:34:00;17.20;88.70
32811;DHT22;65470;47.324;8.548;2023-04-24T09:36:37;16.70;91.70
32811;DHT22;65470;47.324;8.548;2023-04-24T09:39:10;16.40;90.70
32811;DHT22;65470;47.324;8.548;2023-04-24T09:44:22;18.20;90.80
32811;DHT22;65470;47.324;8.548;2023-04-24T09:46:53;19.60;85.50
32811;DHT22;65470;47.324;8.548;2023-04-24T09:49:29;19.90;79.80
32811;DHT22;65470;47.324;8.548;2023-04-24T09:52:06;21.40;77.20
32811;DHT22;65470;47.324;8.548;2023-04-24T09:54:32;22.90;74.10
32811;DHT22;65470;47.324;8.548;2023-04-24T09:56:58;23.80;65.70
32811;DHT22;65470;47.324;8.548;2023-04-24T09:59:25;23.50;61.00
32811;DHT22;65470;47.324;8.548;2023-04-24T10:01:51;23.30;65.80
32811;DHT22;65470;47.324;8.548;2023-04-24T10:04:18;23.40;64.70
32811;DHT22;65470;47.324;8.548;2023-04-24T10:06:44;23.70;62.90
32811;DHT22;65470;47.324;8.548;2023-04-24T10:09:10;24.10;62.30
32811;DHT22;65470;47.324;8.548;2023-04-24T10:11:37;24.80;61.40
32811;DHT22;65470;47.324;8.548;2023-04-24T10:14:06;24.60;60.40
32811;DHT22;65470;47.324;8.548;2023-04-24T10:16:32;24.40;59.30
32811;DHT22;65470;47.324;8.548;2023-04-24T10:18:59;25.10;57.90
32811;DHT22;65470;47.324;8.548;2023-04-24T10:21:26;23.80;60.40
32811;DHT22;65470;47.324;8.548;2023-04-24T10:23:52;22.70;64.20
32811;DHT22;65470;47.324;8.548;2023-04-24T10:26:19;21.90;64.60
32811;DHT22;65470;47.324;8.548;2023-04-24T10:28:46;22.00;65.80
32811;DHT22;65470;47.324;8.548;2023-04-24T10:31:13;21.10;68.50
32811;DHT22;65470;47.324;8.548;2023-04-24T10:33:43;20.60;68.50
32811;DHT22;65470;47.324;8.548;2023-04-24T10:36:12;20.30;68.30
32811;DHT22;65470;47.324;8.548;2023-04-24T10:38:41;20.20;68.90
32811;DHT22;65470;47.324;8.548;2023-04-24T10:41:09;20.20;70.70
32811;DHT22;65470;47.324;8.548;2023-04-24T10:43:35;19.90;73.00
32811;DHT22;65470;47.324;8.548;2023-04-24T10:46:03;19.60;74.50
32811;DHT22;65470;47.324;8.548;2023-04-24T10:48:29;19.60;74.00
32811;DHT22;65470;47.324;8.548;2023-04-24T10:50:55;19.60;73.70
32811;DHT22;65470;47.324;8.548;2023-04-24T10:53:27;19.60;76.10
32811;DHT22;65470;47.324;8.548;2023-04-24T10:56:03;19.60;70.40
32811;DHT22;65470;47.324;8.548;2023-04-24T10:58:53;18.80;71.00
32811;DHT22;65470;47.324;8.548;2023-04-24T11:01:29;18.10;72.50
32811;DHT22;65470;47.324;8.548;2023-04-24T11:04:00;18.20;78.10
32811;DHT22;65470;47.324;8.548;2023-04-24T11:06:32;19.30;74.60
32811;DHT22;65470;47.324;8.548;2023-04-24T11:09:08;19.30;71.90
32811;DHT22;65470;47.324;8.548;2023-04-24T11:11:38;19.20;73.50
32811;DHT22;65470;47.324;8.548;2023-04-24T11:14:06;19.00;73.10
32811;DHT22;65470;47.324;8.548;2023-04-24T11:19:22;18.20;74.70
32811;DHT22;65470;47.324;8.548;2023-04-24T11:21:59;17.60;73.50
32811;DHT22;65470;47.324;8.548;2023-04-24T11:27:15;16.90;81.70
32811;DHT22;65470;47.324;8.548;2023-04-24T11:32:28;18.40;80.30
32811;DHT22;65470;47.324;8.548;2023-04-24T11:37:34;19.00;81.50
32811;DHT22;65470;47.324;8.548;2023-04-24T11:40:00;18.80;80.00
32811;DHT22;65470;47.324;8.548;2023-04-24T11:42:26;18.50;80.00
32811;DHT22;65470;47.324;8.548;2023-04-24T11:44:53;18.40;76.60
32811;DHT22;65470;47.324;8.548;2023-04-24T11:47:27;18.10;78.00
32811;DHT22;65470;47.324;8.548;2023-04-24T11:49:53;17.70;78.90
32811;DHT22;65470;47.324;8.548;2023-04-24T11:52:19;17.60;82.10
32811;DHT22;65470;47.324;8.548;2023-04-24T11:54:51;17.50;81.50
32811;DHT22;65470;47.324;8.548;2023-04-24T11:57:24;17.70;81.50
32811;DHT22;65470;47.324;8.548;2023-04-24T11:59:53;19.20;79.30
32811;DHT22;65470;47.324;8.548;2023-04-24T12:02:23;20.60;71.10
32811;DHT22;65470;47.324;8.548;2023-04-24T12:04:49;21.50;71.90
32811;DHT22;65470;47.324;8.548;2023-04-24T12:07:14;21.20;68.00
32811;DHT22;65470;47.324;8.548;2023-04-24T12:09:41;20.70;67.70
32811;DHT22;65470;47.324;8.548;2023-04-24T12:12:08;20.00;68.60
32811;DHT22;65470;47.324;8.548;2023-04-24T12:14:45;19.70;69.20
32811;DHT22;65470;47.324;8.548;2023-04-24T12:17:10;19.20;71.40
32811;DHT22;65470;47.324;8.548;2023-04-24T12:19:36;18.70;74.40
32811;DHT22;65470;47.324;8.548;2023-04-24T12:22:04;18.10;77.40
32811;DHT22;65470;47.324;8.548;2023-04-24T12:24:30;17.70;81.40
32811;DHT22;65470;47.324;8.548;2023-04-24T12:26:56;17.70;81.00
32811;DHT22;65470;47.324;8.548;2023-04-24T12:29:23;18.20;82.00
32811;DHT22;65470;47.324;8.548;2023-04-24T12:31:50;19.20;78.80
32811;DHT22;65470;47.324;8.548;2023-04-24T12:34:24;19.40;75.60
32811;DHT22;65470;47.324;8.548;2023-04-24T12:36:50;19.20;75.70
32811;DHT22;65470;47.324;8.548;2023-04-24T12:39:19;18.60;77.80
32811;DHT22;65470;47.324;8.548;2023-04-24T12:41:55;18.20;78.50
32811;DHT22;65470;47.324;8.548;2023-04-24T12:44:32;17.90;79.30
32811;DHT22;65470;47.324;8.548;2023-04-24T12:47:00;17.90;80.30
32811;DHT22;65470;47.324;8.548;2023-04-24T12:49:26;18.10;80.40
32811;DHT22;65470;47.324;8.548;2023-04-24T12:51:51;18.00;78.00
32811;DHT22;65470;47.324;8.548;2023-04-24T12:54:17;18.00;75.40
32811;DHT22;65470;47.324;8.548;2023-04-24T12:56:43;18.10;78.80
32811;DHT22;65470;47.324;8.548;2023-04-24T12:59:08;18.00;77.70
32811;DHT22;65470;47.324;8.548;2023-04-24T13:01:34;18.10;79.30
32811;DHT22;65470;47.324;8.548;2023-04-24T13:04:00;18.10;80.50
32811;DHT22;65470;47.324;8.548;2023-04-24T13:06:25;18.00;78.80
32811;DHT22;65470;47.324;8.548;2023-04-24T13:08:51;17.80;77.70
32811;DHT22;65470;47.324;8.548;2023-04-24T13:11:18;18.10;78.10
32811;DHT22;65470;47.324;8.548;2023-04-24T13:13:43;18.80;78.10
32811;DHT22;65470;47.324;8.548;2023-04-24T13:16:09;19.80;76.80
32811;DHT22;65470;47.324;8.548;2023-04-24T13:18:35;20.20;68.60
32811;DHT22;65470;47.324;8.548;2023-04-24T13:21:00;20.10;70.40
32811;DHT22;65470;47.324;8.548;2023-04-24T13:23:26;19.50;69.20
32811;DHT22;65470;47.324;8.548;2023-04-24T13:25:51;19.70;75.70
32811;DHT22;65470;47.324;8.548;2023-04-24T13:28:17;20.00;77.00
32811;DHT22;65470;47.324;8.548;2023-04-24T13:30:43;20.20;73.10
32811;DHT22;65470;47.324;8.548;2023-04-24T13:33:09;20.60;71.80
32811;DHT22;65470;47.324;8.548;2023-04-24T13:35:35;20.30;70.80
32811;DHT22;65470;47.324;8.548;2023-04-24T13:38:00;19.50;70.70
32811;DHT22;65470;47.324;8.548;2023-04-24T13:40:27;19.30;71.40
32811;DHT22;65470;47.324;8.548;2023-04-24T13:42:52;19.30;69.20
32811;DHT22;65470;47.324;8.548;2023-04-24T13:45:18;19.00;69.30
32811;DHT22;65470;47.324;8.548;2023-04-24T13:47:44;18.70;69.70
32811;DHT22;65470;47.324;8.548;2023-04-24T13:50:10;18.60;70.00
32811;DHT22;65470;47.324;8.548;2023-04-24T13:52:35;18.60;70.90
32811;DHT22;65470;47.324;8.548;2023-04-24T13:55:01;18.70;72.60
32811;DHT22;65470;47.324;8.548;2023-04-24T13:57:26;18.50;73.20
32811;DHT22;65470;47.324;8.548;2023-04-24T13:59:53;18.10;73.70
32811;DHT22;65470;47.324;8.548;2023-04-24T14:02:21;17.70;77.20
32811;DHT22;65470;47.324;8.548;2023-04-24T14:04:47;17.40;77.10
32811;DHT22;65470;47.324;8.548;2023-04-24T14:07:13;17.30;79.60
32811;DHT22;65470;47.324;8.548;2023-04-24T14:09:39;17.20;79.80
32811;DHT22;65470;47.324;8.548;2023-04-24T14:12:05;17.20;78.10
32811;DHT22;65470;47.324;8.548;2023-04-24T14:14:31;17.00;79.70
32811;DHT22;65470;47.324;8.548;2023-04-24T14:16:57;16.90;81.10
32811;DHT22;65470;47.324;8.548;2023-04-24T14:19:22;16.90;82.20
32811;DHT22;65470;47.324;8.548;2023-04-24T14:21:49;16.80;81.80
32811;DHT22;65470;47.324;8.548;2023-04-24T14:24:14;16.70;81.90
32811;DHT22;65470;47.324;8.548;2023-04-24T14:26:41;16.50;82.80
32811;DHT22;65470;47.324;8.548;2023-04-24T14:29:06;16.50;83.20
32811;DHT22;65470;47.324;8.548;2023-04-24T14:31:32;16.20;84.60
32811;DHT22;65470;47.324;8.548;2023-04-24T14:33:57;16.00;85.10
32811;DHT22;65470;47.324;8.548;2023-04-24T14:36:24;15.80;87.30
32811;DHT22;65470;47.324;8.548;2023-04-24T14:38:49;15.70;88.90
32811;DHT22;65470;47.324;8.548;2023-04-24T14:41:15;16.10;90.40
32811;DHT22;65470;47.324;8.548;2023-04-24T14:43:40;16.70;90.60
32811;DHT22;65470;47.324;8.548;2023-04-24T14:46:06;17.10;89.20
32811;DHT22;65470;47.324;8.548;2023-04-24T14:48:32;17.20;85.20
32811;DHT22;65470;47.324;8.548;2023-04-24T14:50:58;17.10;85.70
32811;DHT22;65470;47.324;8.548;2023-04-24T14:53:24;17.20;85.20
32811;DHT22;65470;47.324;8.548;2023-04-24T14:55:49;17.10;84.80
32811;DHT22;65470;47.324;8.548;2023-04-24T14:58:15;17.20;86.80
32811;DHT22;65470;47.324;8.548;2023-04-24T15:00:40;17.30;87.90
32811;DHT22;65470;47.324;8.548;2023-04-24T15:03:06;17.40;85.70
32811;DHT22;65470;47.324;8.548;2023-04-24T15:05:32;17.30;84.70
32811;DHT22;65470;47.324;8.548;2023-04-24T15:07:58;17.00;85.80
32811;DHT22;65470;47.324;8.548;2023-04-24T15:10:23;17.00;87.20
32811;DHT22;65470;47.324;8.548;2023-04-24T15:12:50;16.90;88.10
32811;DHT22;65470;47.324;8.548;2023-04-24T15:15:16;17.10;87.40
32811;DHT22;65470;47.324;8.548;2023-04-24T15:17:42;17.00;86.80
32811;DHT22;65470;47.324;8.548;2023-04-24T15:20:08;16.90;87.90
32811;DHT22;65470;47.324;8.548;2023-04-24T15:22:34;17.00;89.10
32811;DHT22;65470;47.324;8.548;2023-04-24T15:25:00;17.20;88.60
32811;DHT22;65470;47.324;8.548;2023-04-24T15:27:26;17.60;87.20
32811;DHT22;65470;47.324;8.548;2023-04-24T15:29:52;17.90;86.20
32811;DHT22;65470;47.324;8.548;2023-04-24T15:32:19;18.10;84.60
32811;DHT22;65470;47.324;8.548;2023-04-24T15:34:44;18.00;83.70
32811;DHT22;65470;47.324;8.548;2023-04-24T15:37:10;17.90;84.70
32811;DHT22;65470;47.324;8.548;2023-04-24T15:39:36;17.90;85.00
32811;DHT22;65470;47.324;8.548;2023-04-24T15:42:02;17.70;85.40
32811;DHT22;65470;47.324;8.548;2023-04-24T15:44:28;17.30;86.30